Station Historical Data
Daily Summary for February 12, 2017 Units:  Metric    English   Both
Next Day »
Daily Weekly Monthly Yearly Custom
  High: Low: Average:
Temperature: 13.2 °C 5.2 °C 8.4 °C
Dew Point: 6.8 °C -2.9 °C 2.5 °C
Humidity: 90% 46% 67%
Wind Speed: 25.7km/h 0km/h 4.2km/h
Wind Gust: 48.3km/h - -
Wind- - SE
Pressure: 1025.6 hPa 1022.2 hPa -
Precipitation: 0 mm    
Historical Graphs
 
 
Tabular Data for February 12, 2017
Time Temperature Dew Point Pressure Wind Wind Speed Wind Gust Humidity Rainfall Rate (Hourly) solar Conditions
00:00 7.1 °C 1.8 °C 1025.3 hPa East 9.7 km/h 25.7 km/h 69% 0 mm 0.00 W/m2
00:05 7.1 °C 1.3 °C 1025.3 hPa ESE 19.3 km/h 25.7 km/h 67% 0 mm 0.00 W/m2
00:10 7.2 °C 1.7 °C 1025.3 hPa East 9.7 km/h 30.6 km/h 68% 0 mm 0.00 W/m2
00:15 7.3 °C 1.8 °C 1025.3 hPa ESE 8 km/h 29 km/h 68% 0 mm 0.00 W/m2
00:20 7.3 °C 1.8 °C 1025.3 hPa ESE 22.5 km/h 25.7 km/h 68% 0 mm 0.00 W/m2
00:25 7.3 °C 1.9 °C 1025.3 hPa ESE 8 km/h 29 km/h 69% 0 mm 0.00 W/m2
00:30 7.2 °C 2.1 °C 1024.9 hPa East 24.1 km/h 24.1 km/h 70% 0 mm 0.00 W/m2
00:35 7.2 °C 2.1 °C 1025.3 hPa East 12.9 km/h 27.4 km/h 70% 0 mm 0.00 W/m2
00:40 7.1 °C 1.8 °C 1025.3 hPa Calm   24.1 km/h 69% 0 mm 0.00 W/m2
00:45 7 °C 1.9 °C 1025.3 hPa ESE 8 km/h 35.4 km/h 70% 0 mm 0.00 W/m2
00:50 6.9 °C 1.7 °C 1025.3 hPa East 8 km/h 29 km/h 69% 0 mm 0.00 W/m2
00:55 6.9 °C 1.8 °C 1025.3 hPa ESE 17.7 km/h 29 km/h 70% 0 mm 0.00 W/m2
01:01 6.9 °C 1.7 °C 1025.3 hPa ESE 20.9 km/h 30.6 km/h 69% 0 mm 0.00 W/m2
01:06 7.1 °C 1.8 °C 1025.3 hPa SE 11.3 km/h 33.8 km/h 69% 0 mm 0.00 W/m2
01:11 7.1 °C 1.8 °C 1025.3 hPa Calm   33.8 km/h 69% 0 mm 0.00 W/m2
01:16 7.1 °C 1.9 °C 1025.3 hPa ENE 4.8 km/h 29 km/h 70% 0 mm 0.00 W/m2
01:21 7.1 °C 1.1 °C 1025.3 hPa ESE 19.3 km/h 32.2 km/h 66% 0 mm 0.00 W/m2
01:26 7.1 °C 1.6 °C 1025.3 hPa ESE 3.2 km/h 37 km/h 68% 0 mm 0.00 W/m2
01:31 7.1 °C 1.3 °C 1025.3 hPa SE 16.1 km/h 29 km/h 67% 0 mm 0.00 W/m2
01:36 7.1 °C 1.2 °C 1025.3 hPa ESE 3.2 km/h 27.4 km/h 66% 0 mm 0.00 W/m2
01:41 7.1 °C 1.4 °C 1025.3 hPa East 17.7 km/h 33.8 km/h 67% 0 mm 0.00 W/m2
01:46 7.1 °C 1.4 °C 1025.3 hPa ESE 19.3 km/h 40.2 km/h 67% 0 mm 0.00 W/m2
01:51 7.1 °C 1.2 °C 1024.9 hPa ESE 19.3 km/h 29 km/h 66% 0 mm 0.00 W/m2
01:56 7.1 °C 1.2 °C 1024.9 hPa ESE 3.2 km/h 32.2 km/h 66% 0 mm 0.00 W/m2
02:01 7.1 °C 1.8 °C 1024.9 hPa ESE 12.9 km/h 30.6 km/h 69% 0 mm 0.00 W/m2
02:06 7.1 °C 1.1 °C 1024.9 hPa East 9.7 km/h 33.8 km/h 66% 0 mm 0.00 W/m2
02:11 7 °C 1.1 °C 1024.9 hPa ESE 12.9 km/h 30.6 km/h 66% 0 mm 0.00 W/m2
02:16 7 °C 1.3 °C 1024.9 hPa East 16.1 km/h 32.2 km/h 67% 0 mm 0.00 W/m2
02:21 6.9 °C 1.2 °C 1024.9 hPa East 20.9 km/h 30.6 km/h 67% 0 mm 0.00 W/m2
02:26 6.9 °C 1.1 °C 1024.9 hPa Calm   32.2 km/h 66% 0 mm 0.00 W/m2
02:31 6.9 °C 0.8 °C 1024.9 hPa Calm   29 km/h 65% 0 mm 0.00 W/m2
02:36 7 °C 1.1 °C 1024.9 hPa SE 12.9 km/h 29 km/h 66% 0 mm 0.00 W/m2
02:41 7 °C 1.3 °C 1024.9 hPa ESE 14.5 km/h 35.4 km/h 67% 0 mm 0.00 W/m2
02:46 6.9 °C 0.8 °C 1024.9 hPa ESE 22.5 km/h 30.6 km/h 65% 0 mm 0.00 W/m2
02:51 6.9 °C 1.2 °C 1024.9 hPa ESE 1.6 km/h 30.6 km/h 67% 0 mm 0.00 W/m2
02:56 6.9 °C 1 °C 1024.9 hPa East 22.5 km/h 29 km/h 66% 0 mm 0.00 W/m2
03:01 6.8 °C 1.1 °C 1024.9 hPa ESE 24.1 km/h 33.8 km/h 67% 0 mm 0.00 W/m2
03:06 6.8 °C 1.1 °C 1024.6 hPa East 20.9 km/h 30.6 km/h 67% 0 mm 0.00 W/m2
03:11 6.8 °C 0.7 °C 1024.9 hPa East 9.7 km/h 48.3 km/h 65% 0 mm 0.00 W/m2
03:16 6.9 °C 0.3 °C 1024.6 hPa East 12.9 km/h 40.2 km/h 63% 0 mm 0.00 W/m2
03:21 7.1 °C 0.7 °C 1024.6 hPa East 9.7 km/h 12.9 km/h 64% 0 mm 0.00 W/m2
03:26 7.1 °C 0.8 °C 1024.6 hPa ESE 22.5 km/h 33.8 km/h 64% 0 mm 0.00 W/m2
03:31 7.2 °C 0.2 °C 1024.6 hPa East 6.4 km/h 37 km/h 61% 0 mm 0.00 W/m2
03:36 7.4 °C 0.4 °C 1024.6 hPa ESE 9.7 km/h 38.6 km/h 61% 0 mm 0.00 W/m2
03:41 7.4 °C 0.4 °C 1024.6 hPa East 9.7 km/h 38.6 km/h 61% 0 mm 0.00 W/m2
03:46 7.5 °C 0.4 °C 1024.9 hPa NE 12.9 km/h 32.2 km/h 61% 0 mm 0.00 W/m2
03:51 7.5 °C 0.2 °C 1024.9 hPa East 16.1 km/h 32.2 km/h 60% 0 mm 0.00 W/m2
03:56 7.5 °C 0.2 °C 1024.6 hPa East 16.1 km/h 32.2 km/h 60% 0 mm 0.00 W/m2
04:01 7.5 °C 0.7 °C 1024.6 hPa ESE 17.7 km/h 30.6 km/h 62% 0 mm 0.00 W/m2
04:06 7.4 °C 0.4 °C 1024.6 hPa East 24.1 km/h 32.2 km/h 61% 0 mm 0.00 W/m2
04:11 7.3 °C 0.6 °C 1024.6 hPa ESE 17.7 km/h 33.8 km/h 62% 0 mm 0.00 W/m2
04:16 7.3 °C 0.7 °C 1024.6 hPa ESE 11.3 km/h 30.6 km/h 63% 0 mm 0.00 W/m2
04:21 7.2 °C 0.4 °C 1024.6 hPa East 3.2 km/h 33.8 km/h 62% 0 mm 0.00 W/m2
04:26 7.2 °C 0.4 °C 1024.6 hPa East 6.4 km/h 37 km/h 62% 0 mm 0.00 W/m2
04:31 7.1 °C 0.8 °C 1024.6 hPa East 17.7 km/h 40.2 km/h 64% 0 mm 0.00 W/m2
04:36 7.1 °C 0.3 °C 1024.6 hPa SE 25.7 km/h 29 km/h 62% 0 mm 0.00 W/m2
04:41 7.1 °C 0.5 °C 1024.6 hPa East 12.9 km/h 25.7 km/h 63% 0 mm 0.00 W/m2
04:46 7 °C 0.4 °C 1024.6 hPa East 17.7 km/h 33.8 km/h 63% 0 mm 0.00 W/m2
04:51 6.9 °C 0.6 °C 1024.6 hPa East 14.5 km/h 29 km/h 64% 0 mm 0.00 W/m2
04:56 6.8 °C 0.1 °C 1024.6 hPa ESE 8 km/h 33.8 km/h 62% 0 mm 0.00 W/m2
05:01 6.8 °C -0.2 °C 1024.6 hPa Calm   25.7 km/h 61% 0 mm 0.00 W/m2
05:06 6.8 °C 0.3 °C 1024.6 hPa ESE 17.7 km/h 35.4 km/h 63% 0 mm 0.00 W/m2
05:11 6.8 °C 0.4 °C 1024.3 hPa ESE 22.5 km/h 30.6 km/h 64% 0 mm 0.00 W/m2
05:16 6.8 °C 0.4 °C 1024.3 hPa ESE 9.7 km/h 30.6 km/h 64% 0 mm 0.00 W/m2
05:21 6.7 °C 0.2 °C 1024.3 hPa ESE 12.9 km/h 32.2 km/h 63% 0 mm 0.00 W/m2
05:26 6.7 °C 0.4 °C 1024.3 hPa East 8 km/h 30.6 km/h 64% 0 mm 0.00 W/m2
05:31 6.7 °C 0.1 °C 1024.3 hPa ESE 11.3 km/h 30.6 km/h 63% 0 mm 0.00 W/m2
05:36 6.7 °C 0.6 °C 1024.3 hPa East 9.7 km/h 29 km/h 65% 0 mm 0.00 W/m2
05:41 6.6 °C 0.4 °C 1024.3 hPa East 6.4 km/h 8 km/h 65% 0 mm 0.00 W/m2
05:46 6.5 °C 0.2 °C 1024.3 hPa ESE 11.3 km/h 14.5 km/h 64% 0 mm 0.00 W/m2
05:51 6.5 °C -0.3 °C 1024.3 hPa ESE 24.1 km/h 24.1 km/h 62% 0 mm 0.00 W/m2
05:56 6.5 °C 0 °C 1024.3 hPa East 9.7 km/h 11.3 km/h 63% 0 mm 0.00 W/m2
06:01 6.5 °C 0 °C 1024.6 hPa Calm     63% 0 mm 0.00 W/m2
06:06 6.5 °C 0.6 °C 1024.6 hPa Calm   11.3 km/h 66% 0 mm 0.00 W/m2
06:11 6.4 °C 0.8 °C 1024.6 hPa Calm   1.6 km/h 67% 0 mm 0.00 W/m2
06:16 6.3 °C 0.4 °C 1024.6 hPa East 8 km/h 12.9 km/h 66% 0 mm 0.00 W/m2
06:21 6.2 °C 0.9 °C 1024.6 hPa ESE 12.9 km/h 12.9 km/h 69% 0 mm 0.00 W/m2
06:26 6 °C 0.6 °C 1024.6 hPa East 9.7 km/h 11.3 km/h 68% 0 mm 0.00 W/m2
06:31 5.9 °C 0.7 °C 1024.6 hPa ESE 19.3 km/h 20.9 km/h 69% 0 mm 0.00 W/m2
06:36 5.8 °C 0.6 °C 1024.6 hPa East 11.3 km/h 11.3 km/h 69% 0 mm 0.00 W/m2
06:41 5.7 °C 0.6 °C 1024.6 hPa East 8 km/h 12.9 km/h 70% 0 mm 0.00 W/m2
06:46 5.6 °C 0 °C 1024.3 hPa East 1.6 km/h 1.6 km/h 67% 0 mm 0.00 W/m2
06:51 5.6 °C 0.1 °C 1024.3 hPa East 17.7 km/h 17.7 km/h 68% 0 mm 0.00 W/m2
06:56 5.5 °C 0.1 °C 1024.3 hPa ESE 11.3 km/h 24.1 km/h 68% 0 mm 5.00 W/m2
07:01 5.4 °C 0 °C 1024.3 hPa ESE 9.7 km/h 20.9 km/h 68% 0 mm 9.00 W/m2
07:06 5.4 °C -0.2 °C 1024.3 hPa Calm   1.6 km/h 67% 0 mm 12.00 W/m2
07:11 5.4 °C 0 °C 1024.3 hPa East 16.1 km/h 24.1 km/h 68% 0 mm 16.00 W/m2
07:16 5.4 °C 0.4 °C 1024.6 hPa Calm   9.7 km/h 70% 0 mm 19.00 W/m2
07:21 5.4 °C 0 °C 1024.6 hPa ESE 12.9 km/h 24.1 km/h 68% 0 mm 25.00 W/m2
07:26 5.4 °C 0.2 °C 1024.6 hPa Calm   6.4 km/h 69% 0 mm 32.00 W/m2
07:31 5.4 °C -0.2 °C 1024.6 hPa East 1.6 km/h 17.7 km/h 67% 0 mm 44.00 W/m2
07:36 5.4 °C 0.6 °C 1024.6 hPa East 9.7 km/h 12.9 km/h 71% 0 mm 60.00 W/m2
07:41 5.4 °C 0.7 °C 1024.6 hPa East 1.6 km/h 1.6 km/h 72% 0 mm 77.00 W/m2
07:46 5.3 °C 0.5 °C 1024.6 hPa Calm   1.6 km/h 71% 0 mm 93.00 W/m2
07:51 5.3 °C 0.7 °C 1024.9 hPa ENE 1.6 km/h 12.9 km/h 72% 0 mm 113.00 W/m2
07:57 5.3 °C 0.7 °C 1024.9 hPa East 11.3 km/h 16.1 km/h 72% 0 mm 130.00 W/m2
08:02 5.2 °C 0.4 °C 1024.9 hPa Calm   12.9 km/h 71% 0 mm 148.00 W/m2
08:07 5.3 °C -0.2 °C 1024.9 hPa Calm   1.6 km/h 68% 0 mm 172.00 W/m2
08:12 5.3 °C 0.1 °C 1024.9 hPa Calm   1.6 km/h 69% 0 mm 190.00 W/m2
08:17 5.3 °C -0.1 °C 1024.9 hPa Calm   3.2 km/h 68% 0 mm 211.00 W/m2
08:22 5.4 °C -0.2 °C 1024.9 hPa Calm   1.6 km/h 67% 0 mm 236.00 W/m2
08:27 5.6 °C -0.5 °C 1024.9 hPa ESE 3.2 km/h 12.9 km/h 65% 0 mm 255.00 W/m2
08:32 5.8 °C 0 °C 1025.3 hPa SE 1.6 km/h 3.2 km/h 66% 0 mm 274.00 W/m2
08:37 6.1 °C 1.2 °C 1025.3 hPa Calm   1.6 km/h 71% 0 mm 297.00 W/m2
08:42 6.2 °C -0.6 °C 1025.6 hPa Calm     62% 0 mm 318.00 W/m2
08:47 6.3 °C 0.2 °C 1025.6 hPa SE 1.6 km/h 3.2 km/h 65% 0 mm 338.00 W/m2
08:52 6.4 °C 0.8 °C 1025.6 hPa Calm   3.2 km/h 67% 0 mm 355.00 W/m2
08:57 6.6 °C 0.4 °C 1025.6 hPa Calm   1.6 km/h 65% 0 mm 367.00 W/m2
09:02 6.7 °C -0.1 °C 1025.6 hPa SE 1.6 km/h 1.6 km/h 62% 0 mm 383.00 W/m2
09:07 6.9 °C 1 °C 1025.6 hPa SE 1.6 km/h 3.2 km/h 66% 0 mm 397.00 W/m2
09:12 7.1 °C 0.9 °C 1025.6 hPa SE 1.6 km/h 1.6 km/h 65% 0 mm 413.00 W/m2
09:17 7.3 °C 1.8 °C 1025.3 hPa SE 3.2 km/h 3.2 km/h 68% 0 mm 427.00 W/m2
09:22 7.5 °C 2 °C 1025.3 hPa ESE 1.6 km/h 3.2 km/h 68% 0 mm 439.00 W/m2
09:27 7.7 °C 2.1 °C 1025.3 hPa East 1.6 km/h 1.6 km/h 68% 0 mm 455.00 W/m2
09:32 7.9 °C 1.5 °C 1025.3 hPa Calm   1.6 km/h 64% 0 mm 468.00 W/m2
09:37 8.1 °C 1.7 °C 1025.3 hPa Calm     64% 0 mm 482.00 W/m2
09:42 8.2 °C 1.6 °C 1025.3 hPa Calm     63% 0 mm 494.00 W/m2
09:47 8.4 °C 2 °C 1025.3 hPa East 1.6 km/h 4.8 km/h 64% 0 mm 504.00 W/m2
09:52 8.7 °C 2.2 °C 1025.3 hPa East 1.6 km/h 6.4 km/h 64% 0 mm 517.00 W/m2
09:57 8.8 °C 2.4 °C 1025.3 hPa East 1.6 km/h 1.6 km/h 64% 0 mm 529.00 W/m2
10:02 9 °C 0.7 °C 1025.3 hPa Calm   1.6 km/h 56% 0 mm 540.00 W/m2
10:07 9.4 °C 0.3 °C 1025.3 hPa Calm   1.6 km/h 53% 0 mm 550.00 W/m2
10:12 9.8 °C 0.9 °C 1025.3 hPa East 1.6 km/h 1.6 km/h 54% 0 mm 561.00 W/m2
10:17 9.9 °C 0.8 °C 1025.3 hPa Calm   1.6 km/h 53% 0 mm 571.00 W/m2
10:22 10.2 °C 1.6 °C 1025.3 hPa Calm   3.2 km/h 55% 0 mm 582.00 W/m2
10:27 10.3 °C 0.4 °C 1025.3 hPa NW 1.6 km/h 4.8 km/h 50% 0 mm 594.00 W/m2
10:32 10.6 °C 0.8 °C 1025.3 hPa WNW 3.2 km/h 4.8 km/h 51% 0 mm 606.00 W/m2
10:37 10.7 °C 0.7 °C 1025.3 hPa NNW 8 km/h 8 km/h 50% 0 mm 601.00 W/m2
10:42 10.8 °C 2.6 °C 1025.3 hPa NNW 3.2 km/h 6.4 km/h 57% 0 mm 596.00 W/m2
10:48 10.9 °C 0.9 °C 1025.3 hPa NW 3.2 km/h 8 km/h 50% 0 mm 626.00 W/m2
10:53 11.1 °C 1.8 °C 1025.3 hPa NW 4.8 km/h 4.8 km/h 53% 0 mm 624.00 W/m2
10:58 11.2 °C 1.1 °C 1025.6 hPa Calm   3.2 km/h 50% 0 mm 619.00 W/m2
11:03 11.3 °C 1 °C 1025.6 hPa NNW 3.2 km/h 4.8 km/h 49% 0 mm 642.00 W/m2
11:08 11.6 °C 2.3 °C 1025.6 hPa NW 1.6 km/h 4.8 km/h 53% 0 mm 645.00 W/m2
11:13 11.7 °C 1.1 °C 1025.6 hPa Calm   1.6 km/h 48% 0 mm 615.00 W/m2
11:18 11.9 °C 0.7 °C 1025.3 hPa NW 4.8 km/h 4.8 km/h 46% 0 mm 592.00 W/m2
11:23 12.1 °C 1.4 °C 1025.3 hPa Calm   3.2 km/h 48% 0 mm 622.00 W/m2
11:28 12.2 °C 1.6 °C 1025.3 hPa WNW 3.2 km/h 9.7 km/h 48% 0 mm 677.00 W/m2
11:33 12.3 °C 2.2 °C 1025.3 hPa Calm   4.8 km/h 50% 0 mm 661.00 W/m2
11:38 12.3 °C 2.4 °C 1025.3 hPa NW 3.2 km/h 8 km/h 51% 0 mm 675.00 W/m2
11:43 12.3 °C 3 °C 1025.3 hPa WNW 8 km/h 12.9 km/h 53% 0 mm 680.00 W/m2
11:48 12.2 °C 2.4 °C 1025.3 hPa WNW 3.2 km/h 9.7 km/h 51% 0 mm 624.00 W/m2
11:53 12.2 °C 1.6 °C 1025.3 hPa Calm   11.3 km/h 48% 0 mm 696.00 W/m2
11:58 12.3 °C 2.2 °C 1024.9 hPa Calm   9.7 km/h 50% 0 mm 700.00 W/m2
12:03 12.3 °C 2.4 °C 1024.9 hPa Calm   3.2 km/h 51% 0 mm 640.00 W/m2
12:08 12.3 °C 1.7 °C 1024.9 hPa NW 4.8 km/h 11.3 km/h 48% 0 mm 652.00 W/m2
12:13 12.4 °C 1.4 °C 1024.9 hPa NW 3.2 km/h 12.9 km/h 47% 0 mm 687.00 W/m2
12:18 12.5 °C 2.9 °C 1024.6 hPa Calm   9.7 km/h 52% 0 mm 664.00 W/m2
12:23 12.6 °C 1.8 °C 1024.6 hPa Calm   1.6 km/h 48% 0 mm 705.00 W/m2
12:28 12.6 °C 1.6 °C 1024.6 hPa NNW 9.7 km/h 11.3 km/h 47% 0 mm 703.00 W/m2
12:33 12.6 °C 2.7 °C 1024.6 hPa WNW 1.6 km/h 9.7 km/h 51% 0 mm 635.00 W/m2
12:38 12.7 °C 2.8 °C 1024.3 hPa Calm   9.7 km/h 51% 0 mm 638.00 W/m2
12:43 12.7 °C 2.6 °C 1024.3 hPa Calm   9.7 km/h 50% 0 mm 617.00 W/m2
12:48 12.7 °C 3.7 °C 1024.3 hPa Calm   1.6 km/h 54% 0 mm 612.00 W/m2
12:53 12.7 °C 3.4 °C 1024.3 hPa Calm   1.6 km/h 53% 0 mm 374.00 W/m2
12:58 12.7 °C 3.3 °C 1024.3 hPa Calm   1.6 km/h 53% 0 mm 654.00 W/m2
13:03 12.7 °C 3.4 °C 1023.9 hPa Calm   3.2 km/h 53% 0 mm 613.00 W/m2
13:08 12.7 °C 3.9 °C 1023.9 hPa Calm   1.6 km/h 55% 0 mm 659.00 W/m2
13:13 12.7 °C 3.9 °C 1023.6 hPa Calm   1.6 km/h 55% 0 mm 640.00 W/m2
13:18 12.8 °C 4.7 °C 1023.6 hPa Calm   1.6 km/h 58% 0 mm 643.00 W/m2
13:23 12.8 °C 4.5 °C 1023.6 hPa Calm   1.6 km/h 57% 0 mm 642.00 W/m2
13:28 12.8 °C 4 °C 1023.6 hPa Calm   3.2 km/h 55% 0 mm 638.00 W/m2
13:33 12.8 °C 3.5 °C 1023.6 hPa Calm   1.6 km/h 53% 0 mm 603.00 W/m2
13:38 12.9 °C 3.9 °C 1023.2 hPa Calm   1.6 km/h 54% 0 mm 633.00 W/m2
13:43 12.9 °C 3.6 °C 1023.2 hPa Calm   1.6 km/h 53% 0 mm 636.00 W/m2
13:49 13.1 °C 3.9 °C 1023.2 hPa Calm   1.6 km/h 54% 0 mm 578.00 W/m2
13:54 13.1 °C 4 °C 1023.2 hPa Calm   1.6 km/h 54% 0 mm 526.00 W/m2
13:58 13.1 °C 4 °C 1023.2 hPa Calm   1.6 km/h 54% 0 mm 584.00 W/m2
14:03 13.1 °C 4 °C 1022.9 hPa WNW 1.6 km/h 1.6 km/h 54% 0 mm 561.00 W/m2
14:09 13.1 °C 4 °C 1022.9 hPa WNW 1.6 km/h 1.6 km/h 54% 0 mm 520.00 W/m2
14:14 13.1 °C 4.6 °C 1022.9 hPa Calm   1.6 km/h 56% 0 mm 561.00 W/m2
14:19 13.1 °C 4.6 °C 1022.6 hPa WNW 1.6 km/h 1.6 km/h 56% 0 mm 559.00 W/m2
14:24 13.2 °C 4.6 °C 1022.6 hPa Calm   11.3 km/h 56% 0 mm 504.00 W/m2
14:29 13.2 °C 4.7 °C 1022.6 hPa Calm   1.6 km/h 56% 0 mm 538.00 W/m2
14:34 13.2 °C 4.9 °C 1022.6 hPa Calm   1.6 km/h 57% 0 mm 533.00 W/m2
14:39 13.2 °C 5.2 °C 1022.6 hPa Calm   1.6 km/h 58% 0 mm 348.00 W/m2
14:44 13.2 °C 5.2 °C 1022.2 hPa Calm   1.6 km/h 58% 0 mm 466.00 W/m2
14:49 13.2 °C 5.2 °C 1022.2 hPa Calm   1.6 km/h 58% 0 mm 452.00 W/m2
14:54 13.2 °C 5.2 °C 1022.2 hPa Calm   1.6 km/h 58% 0 mm 394.00 W/m2
14:59 13.2 °C 5.4 °C 1022.2 hPa Calm   1.6 km/h 59% 0 mm 381.00 W/m2
15:04 13.2 °C 5.2 °C 1022.2 hPa NW 1.6 km/h 1.6 km/h 58% 0 mm 387.00 W/m2
15:09 13.2 °C 5.4 °C 1022.2 hPa Calm   1.6 km/h 59% 0 mm 366.00 W/m2
15:14 13.2 °C 5.9 °C 1022.2 hPa Calm   8 km/h 61% 0 mm 410.00 W/m2
15:19 13.2 °C 6.3 °C 1022.2 hPa Calm   1.6 km/h 63% 0 mm 392.00 W/m2
15:24 13.1 °C 6 °C 1022.2 hPa Calm   1.6 km/h 62% 0 mm 355.00 W/m2
15:29 13.1 °C 6.2 °C 1022.2 hPa Calm   8 km/h 63% 0 mm 390.00 W/m2
15:34 13 °C 6.1 °C 1022.2 hPa Calm   11.3 km/h 63% 0 mm 369.00 W/m2
15:39 12.9 °C 5.8 °C 1022.2 hPa Calm   1.6 km/h 62% 0 mm 348.00 W/m2
15:44 12.9 °C 5.3 °C 1022.2 hPa Calm   1.6 km/h 60% 0 mm 329.00 W/m2
15:49 12.8 °C 5.5 °C 1022.2 hPa West 1.6 km/h 3.2 km/h 61% 0 mm 308.00 W/m2
15:54 12.8 °C 5.7 °C 1022.2 hPa Calm   1.6 km/h 62% 0 mm 288.00 W/m2
15:59 12.8 °C 5.4 °C 1022.2 hPa Calm   1.6 km/h 61% 0 mm 272.00 W/m2
16:04 12.8 °C 5.7 °C 1022.2 hPa Calm   1.6 km/h 62% 0 mm 255.00 W/m2
16:09 12.7 °C 5.9 °C 1022.2 hPa WNW 1.6 km/h 1.6 km/h 63% 0 mm 239.00 W/m2
16:14 12.7 °C 6.3 °C 1022.6 hPa West 3.2 km/h 12.9 km/h 65% 0 mm 220.00 W/m2
16:19 12.6 °C 6.4 °C 1022.6 hPa West 8 km/h 11.3 km/h 66% 0 mm 202.00 W/m2
16:24 12.6 °C 6.8 °C 1022.6 hPa Calm   11.3 km/h 68% 0 mm 183.00 W/m2
16:29 12.3 °C 6.4 °C 1022.6 hPa Calm   1.6 km/h 67% 0 mm 162.00 W/m2
16:34 12.2 °C 6.4 °C 1022.6 hPa Calm   1.6 km/h 68% 0 mm 141.00 W/m2
16:39 12 °C 6.3 °C 1022.6 hPa Calm   1.6 km/h 68% 0 mm 121.00 W/m2
16:44 11.8 °C 6.3 °C 1022.6 hPa Calm   1.6 km/h 69% 0 mm 98.00 W/m2
16:49 11.7 °C 6.2 °C 1022.6 hPa Calm     69% 0 mm 76.00 W/m2
16:54 11.6 °C 6.1 °C 1022.6 hPa Calm     69% 0 mm 56.00 W/m2
16:59 11.4 °C 6.4 °C 1022.6 hPa Calm     71% 0 mm 44.00 W/m2
17:04 11.3 °C 6.7 °C 1022.6 hPa Calm     73% 0 mm 39.00 W/m2
17:05 11.3 °C 6.7 °C 1022.6 hPa Calm     73% 0 mm 39.00 W/m2
17:10 11.2 °C 6.7 °C 1022.6 hPa Calm     74% 0 mm 30.00 W/m2
17:15 11 °C 6.6 °C 1022.6 hPa Calm     74% 0 mm 25.00 W/m2
17:20 10.8 °C 6.4 °C 1022.6 hPa Calm     74% 0 mm 19.00 W/m2
17:25 10.6 °C 6.3 °C 1022.6 hPa Calm     75% 0 mm 14.00 W/m2
17:30 10.2 °C 6.1 °C 1022.6 hPa Calm     76% 0 mm 11.00 W/m2
17:35 9.9 °C 6.3 °C 1022.6 hPa Calm   1.6 km/h 78% 0 mm 7.00 W/m2
17:40 9.8 °C 6.3 °C 1022.6 hPa Calm   1.6 km/h 79% 0 mm 0.00 W/m2
17:45 9.7 °C 6.4 °C 1022.6 hPa Calm     80% 0 mm 0.00 W/m2
17:50 9.6 °C 6.3 °C 1022.9 hPa Calm     80% 0 mm 0.00 W/m2
17:55 9.4 °C 5.9 °C 1022.6 hPa Calm     79% 0 mm 0.00 W/m2
18:00 9.1 °C 5.8 °C 1022.6 hPa Calm     80% 0 mm 0.00 W/m2
18:05 8.9 °C 5.8 °C 1022.9 hPa Calm     81% 0 mm 0.00 W/m2
18:10 8.8 °C 5.9 °C 1022.9 hPa Calm     82% 0 mm 0.00 W/m2
18:15 8.7 °C 5.8 °C 1023.2 hPa Calm     82% 0 mm 0.00 W/m2
18:20 8.5 °C 5.4 °C 1023.2 hPa Calm     81% 0 mm 0.00 W/m2
18:25 8.4 °C 5.5 °C 1023.2 hPa Calm     82% 0 mm 0.00 W/m2
18:30 8.2 °C 5.5 °C 1023.2 hPa Calm     83% 0 mm 0.00 W/m2
18:35 8.1 °C 5.5 °C 1023.2 hPa Calm     84% 0 mm 0.00 W/m2
18:40 7.9 °C 5.4 °C 1023.2 hPa Calm     84% 0 mm 0.00 W/m2
18:45 7.8 °C 5.4 °C 1023.2 hPa Calm     85% 0 mm 0.00 W/m2
18:50 7.6 °C 5.3 °C 1023.2 hPa Calm     85% 0 mm 0.00 W/m2
18:55 7.4 °C 5.3 °C 1023.2 hPa Calm     86% 0 mm 0.00 W/m2
19:00 7.3 °C 5.2 °C 1023.2 hPa Calm     86% 0 mm 0.00 W/m2
19:06 7.3 °C 5.1 °C 1023.2 hPa Calm     86% 0 mm 0.00 W/m2
19:11 7.2 °C 5 °C 1023.2 hPa Calm     86% 0 mm 0.00 W/m2
19:16 7.1 °C 5.1 °C 1023.2 hPa Calm     87% 0 mm 0.00 W/m2
19:21 7 °C 5 °C 1023.2 hPa Calm     87% 0 mm 0.00 W/m2
19:26 6.9 °C 4.9 °C 1023.2 hPa Calm     87% 0 mm 0.00 W/m2
19:31 6.9 °C 4.9 °C 1023.2 hPa Calm     87% 0 mm 0.00 W/m2
19:36 6.8 °C 5 °C 1023.2 hPa Calm     88% 0 mm 0.00 W/m2
19:41 6.8 °C 4.9 °C 1023.2 hPa Calm     88% 0 mm 0.00 W/m2
19:46 6.7 °C 4.9 °C 1023.2 hPa Calm     88% 0 mm 0.00 W/m2
19:51 6.7 °C 5.1 °C 1023.2 hPa Calm     89% 0 mm 0.00 W/m2
19:56 6.7 °C 5 °C 1023.2 hPa Calm     89% 0 mm 0.00 W/m2
20:01 6.7 °C 5 °C 1023.2 hPa Calm     89% 0 mm 0.00 W/m2
20:06 6.6 °C 4.9 °C 1023.2 hPa Calm     89% 0 mm 0.00 W/m2
20:11 6.4 °C 4.8 °C 1023.2 hPa Calm     89% 0 mm 0.00 W/m2
20:16 6.4 °C 4.7 °C 1023.2 hPa Calm     89% 0 mm 0.00 W/m2
20:21 6.4 °C 4.9 °C 1023.2 hPa Calm     90% 0 mm 0.00 W/m2
20:26 6.4 °C 4.9 °C 1023.2 hPa Calm     90% 0 mm 0.00 W/m2
20:31 6.3 °C 4.7 °C 1023.2 hPa Calm     89% 0 mm 0.00 W/m2
20:36 6.3 °C 4.8 °C 1023.2 hPa Calm     90% 0 mm 0.00 W/m2
20:41 6.2 °C 4.6 °C 1023.2 hPa Calm     89% 0 mm 0.00 W/m2
20:46 6.2 °C 4.5 °C 1023.2 hPa Calm     89% 0 mm 0.00 W/m2
20:51 6.1 °C 4.4 °C 1023.2 hPa Calm     89% 0 mm 0.00 W/m2
20:56 6 °C 4.5 °C 1023.2 hPa Calm     90% 0 mm 0.00 W/m2
21:01 5.9 °C 4.3 °C 1023.2 hPa Calm     89% 0 mm 0.00 W/m2
21:06 5.9 °C 4.3 °C 1023.2 hPa Calm     89% 0 mm 0.00 W/m2
21:11 5.9 °C 4.3 °C 1023.2 hPa Calm     89% 0 mm 0.00 W/m2
21:16 5.9 °C 4.1 °C 1023.2 hPa Calm     88% 0 mm 0.00 W/m2
21:21 5.9 °C 4.1 °C 1023.2 hPa Calm     88% 0 mm 0.00 W/m2
21:26 5.9 °C 4.1 °C 1023.2 hPa Calm     88% 0 mm 0.00 W/m2
21:31 5.8 °C 3.7 °C 1023.2 hPa Calm     86% 0 mm 0.00 W/m2
21:36 5.9 °C 3.7 °C 1022.9 hPa Calm     86% 0 mm 0.00 W/m2
21:41 5.8 °C 3.5 °C 1022.9 hPa Calm     85% 0 mm 0.00 W/m2
21:46 5.8 °C 3.4 °C 1022.9 hPa Calm     85% 0 mm 0.00 W/m2
21:51 5.8 °C 3.4 °C 1022.9 hPa Calm     85% 0 mm 0.00 W/m2
21:56 5.8 °C 3.3 °C 1022.9 hPa Calm     84% 0 mm 0.00 W/m2
22:01 5.8 °C 3.2 °C 1022.9 hPa Calm     83% 0 mm 0.00 W/m2
22:06 5.9 °C 2.8 °C 1022.9 hPa Calm     80% 0 mm 0.00 W/m2
22:11 6 °C 2.3 °C 1022.9 hPa Calm     77% 0 mm 0.00 W/m2
22:16 6 °C 2.1 °C 1022.9 hPa Calm     76% 0 mm 0.00 W/m2
22:21 5.9 °C 1.7 °C 1022.9 hPa Calm     74% 0 mm 0.00 W/m2
22:26 5.9 °C 1.4 °C 1022.9 hPa Calm     73% 0 mm 0.00 W/m2
22:31 5.8 °C 1.1 °C 1022.9 hPa Calm     72% 0 mm 0.00 W/m2
22:36 5.7 °C 1 °C 1022.9 hPa Calm     72% 0 mm 0.00 W/m2
22:41 5.7 °C 1.2 °C 1022.9 hPa Calm     73% 0 mm 0.00 W/m2
22:46 5.6 °C 0.4 °C 1022.9 hPa Calm     69% 0 mm 0.00 W/m2
22:51 5.6 °C 0 °C 1022.9 hPa Calm     67% 0 mm 0.00 W/m2
22:56 5.6 °C -0.4 °C 1023.2 hPa Calm     65% 0 mm 0.00 W/m2
23:01 5.7 °C -2.2 °C 1023.2 hPa Calm     57% 0 mm 0.00 W/m2
23:06 5.9 °C -2.9 °C 1022.9 hPa Calm     53% 0 mm 0.00 W/m2
23:11 6.2 °C -1.2 °C 1022.9 hPa Calm     59% 0 mm 0.00 W/m2
23:16 6.3 °C -1.8 °C 1022.9 hPa Calm     56% 0 mm 0.00 W/m2
23:21 6.4 °C -1.9 °C 1023.2 hPa Calm     55% 0 mm 0.00 W/m2
23:26 6.6 °C -0.9 °C 1023.2 hPa Calm     59% 0 mm 0.00 W/m2
23:31 6.6 °C -0.6 °C 1023.2 hPa Calm     60% 0 mm 0.00 W/m2
23:36 6.6 °C -1.1 °C 1023.2 hPa Calm     58% 0 mm 0.00 W/m2
23:41 6.6 °C -0.4 °C 1023.2 hPa Calm     61% 0 mm 0.00 W/m2
23:46 6.4 °C -0.1 °C 1023.2 hPa Calm     63% 0 mm 0.00 W/m2
23:51 6.3 °C 0.6 °C 1023.2 hPa Calm     67% 0 mm 0.00 W/m2
23:56 6.1 °C 0.4 °C 1023.2 hPa Calm     67% 0 mm 0.00 W/m2
Foresthill Weather
 WU-history PHP script courtesy of   Juneau County Weather.
powered by Cumulus v1.9.3 (1059)
Ambient Weather VWS v14.00
Top Contact Website Map Copyright © 2007 - 2018 Foresthillweather.com Never base important decisions on this or any weather information obtained from the Internet